createdAt,value
2022-08-22T00:08:18.742Z,20.37
2022-08-22T00:18:51.349Z,20.39
2022-08-22T00:29:02.153Z,20.66
2022-08-22T00:39:11.145Z,21.08
2022-08-22T00:49:40.695Z,21.25
2022-08-22T00:59:44.910Z,21.38
2022-08-22T01:10:01.618Z,21.26
2022-08-22T01:20:33.537Z,21.12
2022-08-22T01:31:02.809Z,21.16
2022-08-22T01:41:29.052Z,21.07
2022-08-22T01:51:50.861Z,20.87
2022-08-22T02:02:04.030Z,20.62
2022-08-22T02:12:25.082Z,20.39
2022-08-22T02:22:37.090Z,20.24
2022-08-22T02:33:07.213Z,20.15
2022-08-22T02:43:20.714Z,20.01
2022-08-22T02:53:32.299Z,19.93
2022-08-22T03:03:39.905Z,19.84
2022-08-22T03:13:47.210Z,19.68
2022-08-22T03:23:55.109Z,19.53
2022-08-22T03:34:27.079Z,19.40
2022-08-22T03:45:19.826Z,19.30
2022-08-22T03:55:44.390Z,19.20
2022-08-22T04:06:12.710Z,19.15
2022-08-22T04:16:26.486Z,19.09
2022-08-22T04:26:42.476Z,19.06
2022-08-22T04:36:55.867Z,19.33
2022-08-22T04:47:13.159Z,19.65
2022-08-22T04:57:28.165Z,20.02
2022-08-22T05:07:39.822Z,20.58
2022-08-22T05:17:43.719Z,20.85
2022-08-22T05:27:53.299Z,21.02
2022-08-22T05:38:01.072Z,21.38
2022-08-22T05:48:16.168Z,22.04
2022-08-22T05:58:39.896Z,22.54
2022-08-22T06:08:55.298Z,23.18
2022-08-22T06:18:57.459Z,23.73
2022-08-22T06:29:45.606Z,24.32
2022-08-22T06:39:52.049Z,26.17
2022-08-22T06:49:58.985Z,41.54
2022-08-22T07:00:06.714Z,46.18
2022-08-22T07:10:12.794Z,49.93
2022-08-22T07:20:38.456Z,51.44
2022-08-22T07:30:58.081Z,43.79
2022-08-22T07:41:33.467Z,50.13
2022-08-22T07:51:48.291Z,53.65
2022-08-22T08:01:57.284Z,54.29
2022-08-22T08:12:02.262Z,55.12
2022-08-22T08:22:05.985Z,51.39
2022-08-22T08:32:10.974Z,54.46
2022-08-22T08:42:26.617Z,52.03
2022-08-22T08:53:04.270Z,49.14
2022-08-22T09:03:32.633Z,51.82
2022-08-22T09:14:05.689Z,47.77
2022-08-22T09:24:23.305Z,50.14
2022-08-22T09:34:35.251Z,47.61
2022-08-22T09:44:57.822Z,46.07
2022-08-22T09:55:11.718Z,45.28
2022-08-22T10:05:40.836Z,47.87
2022-08-22T10:15:49.945Z,49.35
2022-08-22T10:26:06.185Z,51.15
2022-08-22T10:36:12.944Z,51.23
2022-08-22T10:46:54.530Z,51.92
2022-08-22T10:57:21.232Z,51.73
2022-08-22T11:07:29.960Z,43.50
2022-08-22T11:17:53.961Z,36.35
2022-08-22T11:28:20.323Z,33.37
2022-08-22T11:38:36.776Z,33.76
2022-08-22T11:48:48.692Z,33.86
2022-08-22T11:59:04.973Z,33.40
2022-08-22T12:09:33.835Z,33.71
2022-08-22T12:20:15.110Z,32.68
2022-08-22T12:30:36.210Z,31.88
2022-08-22T12:41:01.778Z,31.93
2022-08-22T12:51:40.567Z,31.03
2022-08-22T13:01:48.355Z,30.04
2022-08-22T13:11:54.391Z,30.73
2022-08-22T13:22:04.780Z,30.62
2022-08-22T13:32:07.658Z,32.33
2022-08-22T13:42:29.815Z,31.94
2022-08-22T13:52:37.919Z,32.98
2022-08-22T14:02:48.778Z,33.36
2022-08-22T14:12:56.305Z,35.23
2022-08-22T14:23:07.112Z,33.26
2022-08-22T14:33:23.552Z,33.86
2022-08-22T14:43:31.937Z,34.70
2022-08-22T14:53:37.088Z,34.19
2022-08-22T15:03:40.788Z,35.45
2022-08-22T15:13:51.281Z,34.85
2022-08-22T15:24:02.026Z,32.93
2022-08-22T15:34:11.515Z,30.64
2022-08-22T15:44:31.048Z,29.59
2022-08-22T15:54:46.778Z,29.78
2022-08-22T16:05:23.042Z,29.51
2022-08-22T16:16:03.822Z,29.47
2022-08-22T16:26:08.069Z,29.30
2022-08-22T16:36:37.327Z,29.04
2022-08-22T16:46:43.999Z,29.22
2022-08-22T16:57:02.642Z,28.81
2022-08-22T17:07:26.809Z,28.71
2022-08-22T17:18:12.259Z,27.95
2022-08-22T17:28:20.063Z,27.42
2022-08-22T17:38:53.400Z,27.05
2022-08-22T17:49:12.177Z,26.55
2022-08-22T17:59:23.625Z,26.29
2022-08-22T18:09:57.257Z,25.74
2022-08-22T18:20:13.762Z,25.36
2022-08-22T18:30:20.553Z,24.94
2022-08-22T18:40:31.766Z,24.68
2022-08-22T18:50:36.455Z,24.35
2022-08-22T19:00:52.462Z,24.00
2022-08-22T19:11:13.447Z,23.67
2022-08-22T19:21:42.272Z,23.28
2022-08-22T19:31:50.438Z,22.97
2022-08-22T19:41:54.304Z,22.84
2022-08-22T19:52:16.516Z,22.65
2022-08-22T20:02:38.186Z,22.60
2022-08-22T20:13:02.296Z,22.38
2022-08-22T20:23:23.568Z,22.27
2022-08-22T20:33:29.316Z,22.08
2022-08-22T20:43:49.811Z,21.83
2022-08-22T20:53:52.934Z,21.69
2022-08-22T21:03:55.385Z,21.57
2022-08-22T21:13:56.932Z,21.44
2022-08-22T21:24:01.983Z,21.32
2022-08-22T21:34:03.587Z,21.14
2022-08-22T21:44:28.663Z,21.03
2022-08-22T21:54:40.397Z,20.88
2022-08-22T22:04:41.916Z,20.73
2022-08-22T22:14:46.616Z,20.67
2022-08-22T22:24:48.151Z,20.54
2022-08-22T22:34:49.640Z,20.45
2022-08-22T22:44:51.100Z,20.37
2022-08-22T22:54:52.835Z,20.25
2022-08-22T23:04:56.272Z,20.16
2022-08-22T23:14:57.754Z,20.05
2022-08-22T23:25:02.109Z,19.99
2022-08-22T23:35:04.803Z,19.94
2022-08-22T23:45:06.682Z,19.88
2022-08-22T23:55:08.730Z,19.71
